PROFILE

 METAR AND TAF INFORMATION
ADDS - METARS form results

(0512 UTC 26 January 2021)
http://aviationweather.gov/metar/data/
 
LPMA 260500Z VRB03KT 9999 FEW013 16/13 Q1026
LPMA 260430Z VRB01KT 9999 FEW013 16/13 Q1027
TAF LPMA 252300Z 2600/2624 VRB05KT 9999 SCT015 TEMPO 2600/2608 SCT013 BKN030 BECMG 2608/2611 03008KT 

 AIRPORT MAP

 RUNWAY INFORMATION
Runway 05 Runway length 9110 ft Runway width 148 ft
Runway elevation 147 ft Runway displaced threshold 480 ft Runway heading 45
Runway 23 Runway length 9110 ft Runway width 148 ft
Runway elevation 192 ft Runway displaced threshold 490 ft Runway heading 225

 AIRPORT FREQUENCIES
Type APP Name APP Frequency 119.2 MHZ
Type TWR Name TWR Frequency 118.35 MHZ

 AIRPORT NEAR NAVIGATION AIDS
Type VOR-DME Name Madeira Frequency 112200 KHZ
Type NDB Name Madeira Frequency 318 KHZ